Time;durP1;ratioP1;P1;durP2;ratioP2;P2;SDS_P1;SDS_P2;PMS_P1;PMS_P2;Temp;Humidity;BMP_temperature;BMP_pressure;BME280_temperature;BME280_humidity;BME280_pressure;Samples;Min_cycle;Max_cycle;Signal;HPM_P1;HPM_P2
2022/03/30 00:00:51;;;;;;;16.42;14.32;;;11.20;99.90;;;;;;5058068;28;20172;-74
2022/03/30 00:03:17;;;;;;;19.73;15.43;;;11.20;99.90;;;;;;5064311;28;20549;-74
2022/03/30 00:05:42;;;;;;;17.90;14.27;;;11.30;99.90;;;;;;5063643;28;20202;-74
2022/03/30 00:08:08;;;;;;;16.55;13.18;;;11.20;99.90;;;;;;5064241;28;20190;-74
2022/03/30 00:10:34;;;;;;;17.05;14.43;;;11.30;99.90;;;;;;5080534;28;20660;-73
2022/03/30 00:13:00;;;;;;;16.73;14.30;;;11.30;99.90;;;;;;5070528;28;20185;-74
2022/03/30 00:15:27;;;;;;;18.27;13.90;;;11.30;99.90;;;;;;5066143;28;20204;-74
2022/03/30 00:17:53;;;;;;;21.00;14.63;;;11.30;99.90;;;;;;5066247;28;20167;-74
2022/03/30 00:20:19;;;;;;;23.35;14.90;;;11.20;99.90;;;;;;5065432;28;20251;-73
2022/03/30 00:22:45;;;;;;;20.15;13.43;;;11.10;99.90;;;;;;5065042;28;20662;-74
2022/03/30 00:25:12;;;;;;;15.52;13.80;;;11.10;99.90;;;;;;5071186;28;20290;-74
2022/03/30 00:27:41;;;;;;;18.00;13.43;;;11.10;99.90;;;;;;5061453;28;20183;-74
2022/03/30 00:30:07;;;;;;;17.23;13.82;;;11.00;99.90;;;;;;5056637;28;20214;-74
2022/03/30 00:32:33;;;;;;;16.77;13.52;;;11.00;99.90;;;;;;5067641;28;20180;-72
2022/03/30 00:34:59;;;;;;;18.80;13.80;;;10.90;99.90;;;;;;5060619;28;20303;-74
2022/03/30 00:37:24;;;;;;;16.95;12.77;;;10.90;99.90;;;;;;5064373;28;20288;-74
2022/03/30 00:39:52;;;;;;;19.42;14.48;;;10.80;99.90;;;;;;5063195;28;20171;-75
2022/03/30 00:42:20;;;;;;;17.05;13.40;;;10.70;99.90;;;;;;5072082;28;20187;-74
2022/03/30 00:44:49;;;;;;;17.40;13.48;;;10.70;99.90;;;;;;5057575;28;20172;-74
2022/03/30 00:47:16;;;;;;;16.48;14.50;;;10.60;99.90;;;;;;5054058;28;20195;-73
2022/03/30 00:49:42;;;;;;;16.65;13.60;;;10.50;99.90;;;;;;5062365;28;20686;-74
2022/03/30 00:52:08;;;;;;;13.95;12.45;;;10.50;99.90;;;;;;5058764;28;20646;-74
2022/03/30 00:54:34;;;;;;;14.70;13.13;;;10.40;99.90;;;;;;5066861;28;20175;-74
2022/03/30 00:57:01;;;;;;;15.98;13.43;;;10.50;99.90;;;;;;5067971;28;20213;-74
2022/03/30 00:59:27;;;;;;;15.68;13.95;;;10.40;99.90;;;;;;5074718;28;20188;-73
2022/03/30 01:01:52;;;;;;;14.60;12.82;;;10.40;99.90;;;;;;5059277;28;20171;-74
2022/03/30 01:04:18;;;;;;;17.98;13.75;;;10.30;99.90;;;;;;5066926;28;20211;-72
2022/03/30 01:06:45;;;;;;;17.25;13.57;;;10.30;99.90;;;;;;5069254;28;20203;-74
2022/03/30 01:09:11;;;;;;;15.52;13.80;;;10.30;99.90;;;;;;5061585;28;20176;-73
2022/03/30 01:11:37;;;;;;;16.60;12.80;;;10.30;99.90;;;;;;5062954;28;20185;-74
2022/03/30 01:14:04;;;;;;;14.93;12.25;;;10.30;99.90;;;;;;5060209;28;20270;-74
2022/03/30 01:16:29;;;;;;;16.38;13.15;;;10.20;99.90;;;;;;5061186;28;20207;-73
2022/03/30 01:19:06;;;;;;;16.90;13.70;;;10.20;99.90;;;;;;5068657;28;20209;-74
2022/03/30 01:21:32;;;;;;;18.90;13.57;;;10.20;99.90;;;;;;5074365;28;20184;-74
2022/03/30 01:23:58;;;;;;;15.65;13.98;;;10.20;99.90;;;;;;5058208;28;20666;-73
2022/03/30 01:26:25;;;;;;;16.45;13.45;;;10.20;99.90;;;;;;5055911;28;20222;-77
2022/03/30 01:28:51;;;;;;;17.48;13.98;;;10.20;99.90;;;;;;5069939;28;20289;-74
2022/03/30 01:34:01;;;;;;;18.77;14.60;;;10.20;99.90;;;;;;5056863;28;20262;-73
2022/03/30 01:36:27;;;;;;;15.88;13.60;;;10.10;99.90;;;;;;5065344;28;20676;-72
2022/03/30 01:38:52;;;;;;;14.52;12.95;;;10.20;99.90;;;;;;5065323;28;20184;-73
2022/03/30 01:41:18;;;;;;;14.00;12.55;;;10.10;99.90;;;;;;5055740;28;20643;-72
2022/03/30 01:43:43;;;;;;;14.43;12.32;;;10.10;99.90;;;;;;5068196;28;20247;-73
2022/03/30 01:46:09;;;;;;;18.30;14.45;;;10.10;99.90;;;;;;5076485;28;20608;-73
2022/03/30 01:48:35;;;;;;;17.25;13.68;;;10.10;99.90;;;;;;5058665;28;20202;-73
2022/03/30 01:51:01;;;;;;;15.50;13.85;;;10.20;99.90;;;;;;5062488;28;20254;-73
2022/03/30 01:53:27;;;;;;;19.85;14.35;;;10.10;99.90;;;;;;5069723;28;20183;-73
2022/03/30 01:55:53;;;;;;;15.73;13.38;;;10.10;99.90;;;;;;5060251;28;20207;-73
2022/03/30 01:58:18;;;;;;;15.90;12.88;;;10.10;99.90;;;;;;5056702;28;20278;-73
2022/03/30 02:00:45;;;;;;;14.75;13.30;;;10.10;99.90;;;;;;5063092;28;20254;-73
2022/03/30 02:03:12;;;;;;;17.38;14.63;;;10.10;99.90;;;;;;5067579;28;20176;-73
2022/03/30 02:05:40;;;;;;;18.13;14.60;;;10.10;99.90;;;;;;5057844;28;20199;-73
2022/03/30 02:08:07;;;;;;;17.02;13.85;;;10.10;99.90;;;;;;5052302;28;20194;-73
2022/03/30 02:10:33;;;;;;;19.27;14.60;;;10.00;99.90;;;;;;5061099;28;20185;-73
2022/03/30 02:12:59;;;;;;;17.23;13.60;;;10.00;99.90;;;;;;5062858;28;20267;-73
2022/03/30 02:15:25;;;;;;;18.13;13.90;;;10.00;99.90;;;;;;5065191;28;20203;-73
2022/03/30 02:17:51;;;;;;;20.15;15.38;;;10.00;99.90;;;;;;5066132;28;20197;-73
2022/03/30 02:20:17;;;;;;;17.13;13.65;;;10.00;99.90;;;;;;5062472;28;20172;-73
2022/03/30 02:22:42;;;;;;;20.50;14.18;;;10.00;99.90;;;;;;5065952;28;20185;-73
2022/03/30 02:25:09;;;;;;;17.90;13.77;;;9.90;99.90;;;;;;5024941;28;1105945;-73
2022/03/30 02:27:36;;;;;;;16.02;13.35;;;10.00;99.90;;;;;;5057601;28;20183;-73
2022/03/30 02:30:03;;;;;;;14.70;13.23;;;10.00;99.90;;;;;;5067505;28;20182;-74
2022/03/30 02:32:29;;;;;;;20.20;13.98;;;10.00;99.90;;;;;;5083171;28;20199;-73
2022/03/30 02:34:55;;;;;;;17.88;14.30;;;9.90;99.90;;;;;;5062879;28;20218;-73
2022/03/30 02:37:20;;;;;;;16.45;14.73;;;9.80;99.90;;;;;;5057164;28;20231;-73
2022/03/30 02:39:46;;;;;;;18.35;15.05;;;9.70;99.90;;;;;;5064023;28;20598;-73
2022/03/30 02:42:12;;;;;;;20.20;15.30;;;9.70;99.90;;;;;;5063417;28;20265;-73
2022/03/30 02:44:39;;;;;;;17.77;13.18;;;9.80;99.90;;;;;;5067972;28;21554;-74
2022/03/30 02:47:07;;;;;;;14.90;13.27;;;9.80;99.90;;;;;;5057811;28;20647;-73
2022/03/30 02:49:33;;;;;;;17.45;14.85;;;9.90;99.90;;;;;;5061515;28;20187;-73
2022/03/30 02:51:58;;;;;;;17.35;14.30;;;10.00;99.90;;;;;;5062214;28;20242;-73
2022/03/30 02:54:24;;;;;;;17.42;14.02;;;9.90;99.90;;;;;;5059555;28;20238;-73
2022/03/30 02:56:50;;;;;;;18.08;13.93;;;9.90;99.90;;;;;;5057385;28;20272;-73
2022/03/30 02:59:16;;;;;;;16.30;14.05;;;9.90;99.90;;;;;;5057774;28;20289;-73
2022/03/30 03:01:41;;;;;;;18.50;13.93;;;9.90;99.90;;;;;;5066088;28;20269;-72
2022/03/30 03:04:07;;;;;;;15.32;13.55;;;9.90;99.90;;;;;;5050289;28;20590;-73
2022/03/30 03:06:33;;;;;;;15.23;13.63;;;9.90;99.90;;;;;;5057339;28;20208;-73
2022/03/30 03:08:58;;;;;;;17.00;14.07;;;10.00;99.90;;;;;;5056909;28;20207;-73
2022/03/30 03:11:25;;;;;;;16.42;13.38;;;10.00;99.90;;;;;;5060601;28;20222;-72
2022/03/30 03:13:51;;;;;;;17.88;13.60;;;10.00;99.90;;;;;;5055080;28;20593;-72
2022/03/30 03:16:18;;;;;;;15.20;13.50;;;10.00;99.90;;;;;;5052271;28;20200;-72
2022/03/30 03:18:44;;;;;;;17.10;13.98;;;10.00;99.90;;;;;;5053821;28;20658;-73
2022/03/30 03:21:10;;;;;;;17.85;14.93;;;9.90;99.90;;;;;;5050895;28;20176;-72
2022/03/30 03:23:36;;;;;;;19.38;15.13;;;9.80;99.90;;;;;;5057425;28;20186;-73
2022/03/30 03:26:02;;;;;;;16.27;14.18;;;9.80;99.90;;;;;;5057788;28;20215;-71
2022/03/30 03:28:27;;;;;;;18.80;14.13;;;9.80;99.90;;;;;;5072919;28;20672;-71
2022/03/30 03:30:53;;;;;;;18.15;13.73;;;9.90;99.90;;;;;;5075783;28;20180;-71
2022/03/30 03:33:19;;;;;;;17.38;14.57;;;9.90;99.90;;;;;;5071055;28;20184;-72
2022/03/30 03:35:45;;;;;;;19.25;14.30;;;9.90;99.90;;;;;;5068670;28;20206;-72
2022/03/30 03:38:11;;;;;;;18.35;13.45;;;10.00;99.90;;;;;;5082374;28;20246;-72
2022/03/30 03:40:37;;;;;;;14.55;12.63;;;9.90;99.90;;;;;;5070197;28;20263;-71
2022/03/30 03:43:04;;;;;;;17.67;14.50;;;10.00;99.90;;;;;;5073778;28;20171;-72
2022/03/30 03:45:30;;;;;;;16.02;13.40;;;10.00;99.90;;;;;;5064437;28;20235;-72
2022/03/30 03:47:56;;;;;;;19.42;15.52;;;10.00;99.90;;;;;;5064297;28;20195;-71
2022/03/30 03:50:22;;;;;;;17.90;14.18;;;10.00;99.90;;;;;;5069275;28;20176;-72
2022/03/30 03:52:48;;;;;;;19.13;14.63;;;9.90;99.90;;;;;;5060724;28;20653;-72
2022/03/30 03:55:14;;;;;;;21.45;14.70;;;9.80;99.90;;;;;;5062269;28;20203;-73
2022/03/30 03:57:41;;;;;;;17.08;13.82;;;9.80;99.90;;;;;;5059830;28;20176;-73
2022/03/30 04:00:08;;;;;;;18.38;14.45;;;9.80;99.90;;;;;;5061183;28;21726;-73
2022/03/30 04:02:34;;;;;;;16.98;14.45;;;9.80;99.90;;;;;;5061006;28;20167;-71
2022/03/30 04:04:59;;;;;;;17.17;14.18;;;9.80;99.90;;;;;;5069974;28;20256;-72
2022/03/30 04:07:25;;;;;;;19.88;15.25;;;9.80;99.90;;;;;;5061339;28;20187;-71
2022/03/30 04:09:50;;;;;;;16.50;13.25;;;9.80;99.90;;;;;;5066183;28;20178;-72
2022/03/30 04:12:16;;;;;;;18.80;14.88;;;9.80;99.90;;;;;;5075110;28;20194;-72
2022/03/30 04:14:41;;;;;;;17.23;14.07;;;9.80;99.90;;;;;;5067089;28;20179;-73
2022/03/30 04:17:07;;;;;;;15.95;13.55;;;9.80;99.90;;;;;;5074139;28;20225;-71
2022/03/30 04:19:33;;;;;;;20.45;13.63;;;9.70;99.90;;;;;;5072349;28;20550;-72
2022/03/30 04:21:59;;;;;;;17.42;12.85;;;9.70;99.90;;;;;;5065223;28;20232;-72
2022/03/30 04:24:24;;;;;;;15.60;12.35;;;9.60;99.90;;;;;;5065582;28;20175;-72
2022/03/30 04:26:50;;;;;;;14.55;11.85;;;9.60;99.90;;;;;;5066524;28;20215;-72
2022/03/30 04:29:16;;;;;;;14.65;12.55;;;9.50;99.90;;;;;;5059231;28;20240;-71
2022/03/30 04:31:41;;;;;;;16.45;11.60;;;9.50;99.90;;;;;;5060451;28;20174;-73
2022/03/30 04:34:07;;;;;;;16.85;13.45;;;9.60;99.90;;;;;;5070964;28;20271;-73
2022/03/30 04:36:33;;;;;;;16.83;13.18;;;9.60;99.90;;;;;;5067309;28;20199;-73
2022/03/30 04:38:59;;;;;;;15.57;12.15;;;9.50;99.90;;;;;;5064868;28;20175;-73
2022/03/30 04:41:25;;;;;;;15.82;12.38;;;9.50;99.90;;;;;;5087997;28;20189;-73
2022/03/30 04:43:50;;;;;;;15.68;13.20;;;9.40;99.90;;;;;;5069350;28;20262;-73
2022/03/30 04:46:17;;;;;;;17.80;12.30;;;9.40;99.90;;;;;;5067365;28;20678;-73
2022/03/30 04:48:43;;;;;;;16.25;12.80;;;9.40;99.90;;;;;;5066142;28;20183;-72
2022/03/30 04:51:09;;;;;;;18.33;13.85;;;9.40;99.90;;;;;;5068629;28;20189;-72
2022/03/30 04:53:34;;;;;;;17.85;13.38;;;9.40;99.90;;;;;;5070929;28;20984;-72
2022/03/30 04:56:00;;;;;;;14.10;12.63;;;9.30;99.90;;;;;;5068093;28;20689;-72
2022/03/30 04:58:26;;;;;;;14.95;12.10;;;9.30;99.90;;;;;;5072163;28;20709;-72
2022/03/30 05:00:52;;;;;;;14.60;13.07;;;9.30;99.90;;;;;;5069110;28;20170;-73
2022/03/30 05:03:17;;;;;;;20.88;14.73;;;9.30;99.90;;;;;;5064068;28;20592;-73
2022/03/30 05:05:43;;;;;;;17.92;13.63;;;9.30;99.90;;;;;;5072637;28;21234;-73
2022/03/30 05:08:09;;;;;;;17.50;13.70;;;9.30;99.90;;;;;;5068299;28;20183;-73
2022/03/30 05:10:35;;;;;;;16.20;13.77;;;9.30;99.90;;;;;;5057334;28;20198;-72
2022/03/30 05:13:04;;;;;;;20.55;13.45;;;9.30;99.90;;;;;;5060994;28;20547;-72
2022/03/30 05:15:30;;;;;;;22.70;14.85;;;9.30;99.90;;;;;;5060281;28;20262;-73
2022/03/30 05:17:55;;;;;;;19.50;14.70;;;9.20;99.90;;;;;;5067936;28;20677;-73
2022/03/30 05:20:21;;;;;;;15.73;13.88;;;9.20;99.90;;;;;;5063804;28;20184;-73
2022/03/30 05:22:47;;;;;;;16.77;13.55;;;9.20;99.90;;;;;;5069747;28;20172;-73
2022/03/30 05:25:15;;;;;;;21.13;15.20;;;9.30;99.90;;;;;;5065129;28;20595;-73
2022/03/30 05:27:41;;;;;;;21.45;15.07;;;9.40;99.90;;;;;;5064863;28;20163;-73
2022/03/30 05:30:08;;;;;;;22.42;15.63;;;9.40;99.90;;;;;;5074290;28;20182;-73
2022/03/30 05:32:35;;;;;;;18.42;14.48;;;9.40;99.90;;;;;;5077956;28;20175;-74
2022/03/30 05:35:01;;;;;;;18.63;14.57;;;9.50;99.90;;;;;;5066455;28;20198;-73
2022/03/30 05:37:27;;;;;;;20.00;14.68;;;9.60;99.90;;;;;;5064824;28;20206;-73
2022/03/30 05:39:53;;;;;;;20.58;14.80;;;9.70;99.90;;;;;;5068179;28;20179;-76
2022/03/30 05:42:21;;;;;;;21.52;14.63;;;9.70;99.90;;;;;;5063639;28;20183;-78
2022/03/30 05:44:47;;;;;;;19.83;15.15;;;9.70;99.90;;;;;;5068039;28;20167;-78
2022/03/30 05:47:14;;;;;;;23.58;15.60;;;9.60;99.90;;;;;;5069279;28;20249;-78
2022/03/30 05:49:40;;;;;;;20.63;15.50;;;9.70;99.90;;;;;;5059308;28;20263;-77
2022/03/30 05:52:07;;;;;;;17.13;14.85;;;9.70;99.90;;;;;;5063467;28;20199;-77
2022/03/30 05:54:33;;;;;;;18.80;15.00;;;9.80;99.90;;;;;;5065138;28;20555;-78
2022/03/30 05:57:02;;;;;;;23.85;14.38;;;9.80;99.90;;;;;;5065476;28;20262;-77
2022/03/30 05:59:37;;;;;;;19.23;14.55;;;9.90;99.90;;;;;;5066876;28;20190;-73
2022/03/30 06:02:05;;;;;;;20.13;13.95;;;9.90;99.90;;;;;;5057063;28;20183;-73
2022/03/30 06:04:31;;;;;;;20.88;15.30;;;10.00;99.90;;;;;;5060514;28;20175;-72
2022/03/30 06:06:57;;;;;;;17.95;13.82;;;10.10;99.90;;;;;;5056137;28;20210;-73
2022/03/30 06:09:23;;;;;;;22.38;14.05;;;10.20;99.90;;;;;;5058746;28;20582;-75
2022/03/30 06:11:48;;;;;;;15.93;13.45;;;10.20;99.90;;;;;;5064406;28;20175;-74
2022/03/30 06:14:15;;;;;;;18.08;13.95;;;10.20;99.90;;;;;;5065117;28;20743;-73
2022/03/30 06:16:42;;;;;;;16.98;13.60;;;10.20;99.90;;;;;;5070056;28;20747;-73
2022/03/30 06:19:09;;;;;;;16.20;13.48;;;10.30;99.90;;;;;;5061450;28;20183;-74
2022/03/30 06:21:35;;;;;;;18.85;14.52;;;10.50;99.90;;;;;;5066493;28;20188;-75
2022/03/30 06:24:01;;;;;;;22.55;15.57;;;10.60;99.90;;;;;;5071430;28;20179;-73
2022/03/30 06:26:27;;;;;;;19.40;14.82;;;10.70;99.90;;;;;;5076505;28;20302;-74
2022/03/30 06:28:54;;;;;;;21.83;15.32;;;10.70;99.90;;;;;;5065291;28;20194;-74
2022/03/30 06:31:19;;;;;;;19.77;14.48;;;10.80;99.90;;;;;;5065514;28;20838;-73
2022/03/30 06:33:47;;;;;;;18.38;14.93;;;10.80;99.90;;;;;;5069266;28;20183;-73
2022/03/30 06:36:13;;;;;;;27.90;15.60;;;10.90;99.90;;;;;;5061317;28;20203;-73
2022/03/30 06:38:39;;;;;;;22.17;14.75;;;11.10;99.90;;;;;;5060806;28;20179;-73
2022/03/30 06:41:07;;;;;;;22.38;14.82;;;11.30;99.90;;;;;;5065197;28;20673;-74
2022/03/30 06:43:34;;;;;;;19.13;14.68;;;11.40;99.90;;;;;;5070447;28;20187;-74
2022/03/30 06:45:59;;;;;;;16.23;14.57;;;11.60;99.90;;;;;;5069097;28;20297;-74
2022/03/30 06:48:25;;;;;;;17.63;14.55;;;11.60;99.90;;;;;;5066580;28;20218;-75
2022/03/30 06:50:52;;;;;;;17.65;14.65;;;11.70;99.90;;;;;;5075372;28;20274;-75
2022/03/30 06:53:17;;;;;;;19.95;15.18;;;11.90;99.90;;;;;;5062339;28;20186;-75
2022/03/30 06:55:43;;;;;;;14.10;12.70;;;12.10;99.90;;;;;;5069546;28;20641;-76
2022/03/30 06:58:09;;;;;;;18.33;14.13;;;12.30;99.90;;;;;;5068371;28;20258;-75
2022/03/30 07:00:34;;;;;;;16.40;14.10;;;12.40;99.90;;;;;;5061048;28;20571;-74
2022/03/30 07:03:00;;;;;;;16.02;13.90;;;12.50;99.90;;;;;;5068636;28;20190;-75
2022/03/30 07:05:25;;;;;;;18.80;14.55;;;12.60;99.90;;;;;;5066260;28;20211;-75
2022/03/30 07:10:35;;;;;;;19.85;15.27;;;12.80;99.90;;;;;;5070373;28;20716;-75
2022/03/30 07:13:03;;;;;;;17.30;14.05;;;12.90;99.90;;;;;;5060326;28;20207;-75
2022/03/30 07:15:29;;;;;;;20.00;15.20;;;13.00;99.90;;;;;;5069315;28;20215;-75
2022/03/30 07:17:58;;;;;;;20.63;14.82;;;13.10;99.90;;;;;;5080094;28;20218;-75
2022/03/30 07:20:26;;;;;;;19.25;15.45;;;13.20;99.90;;;;;;5068509;28;20713;-75
2022/03/30 07:22:52;;;;;;;17.85;15.90;;;13.10;99.90;;;;;;5073114;28;20179;-75
2022/03/30 07:25:19;;;;;;;18.27;16.10;;;13.10;99.90;;;;;;5069425;28;20600;-75
2022/03/30 07:27:48;;;;;;;21.02;15.10;;;13.10;99.90;;;;;;5068791;28;20537;-75
2022/03/30 07:30:15;;;;;;;17.58;15.18;;;13.00;99.90;;;;;;5071562;28;20577;-75
2022/03/30 07:32:42;;;;;;;17.63;15.82;;;13.10;99.90;;;;;;5066014;28;20261;-74
2022/03/30 07:35:17;;;;;;;21.42;15.98;;;13.00;99.90;;;;;;5067745;28;20215;-79
2022/03/30 07:37:43;;;;;;;16.70;14.68;;;13.00;99.90;;;;;;5066971;28;20658;-74
2022/03/30 07:40:12;;;;;;;19.98;15.60;;;13.10;99.90;;;;;;5071744;28;20215;-73
2022/03/30 07:42:39;;;;;;;19.60;15.35;;;13.10;99.90;;;;;;5066384;28;20206;-74
2022/03/30 07:45:07;;;;;;;17.63;15.32;;;13.20;99.90;;;;;;5066694;28;20678;-75
2022/03/30 07:47:33;;;;;;;19.92;15.45;;;13.30;99.90;;;;;;5070325;28;20183;-77
2022/03/30 07:49:59;;;;;;;19.17;15.43;;;13.40;99.90;;;;;;5068044;28;20690;-76
2022/03/30 07:52:25;;;;;;;21.45;16.70;;;13.30;99.90;;;;;;5066298;28;20266;-75
2022/03/30 07:54:53;;;;;;;17.58;15.63;;;13.20;99.90;;;;;;5068713;28;20185;-76
2022/03/30 07:57:26;;;;;;;16.80;14.63;;;13.30;99.90;;;;;;5068386;28;20261;-78
2022/03/30 08:00:02;;;;;;;15.93;14.30;;;13.40;99.90;;;;;;5068422;28;20179;-75
2022/03/30 08:02:27;;;;;;;17.48;15.05;;;13.60;99.90;;;;;;5082966;28;20179;-76
2022/03/30 08:04:54;;;;;;;17.08;14.55;;;13.80;99.90;;;;;;5071704;28;20560;-75
2022/03/30 08:07:21;;;;;;;23.48;15.57;;;13.90;99.90;;;;;;5066078;28;20237;-74
2022/03/30 08:09:47;;;;;;;26.08;16.35;;;13.80;99.90;;;;;;5068887;28;20650;-78
2022/03/30 08:12:17;;;;;;;19.67;15.63;;;13.90;99.90;;;;;;5064282;28;20221;-75
2022/03/30 08:14:43;;;;;;;18.95;15.93;;;13.80;99.90;;;;;;5066845;28;20576;-75
2022/03/30 08:17:10;;;;;;;21.88;16.73;;;13.80;99.90;;;;;;5075309;28;20257;-78
2022/03/30 08:19:36;;;;;;;20.85;16.13;;;13.70;99.90;;;;;;5083987;28;20194;-76
2022/03/30 08:24:47;;;;;;;16.30;14.10;;;13.50;99.90;;;;;;5065028;28;20249;-76
2022/03/30 08:27:18;;;;;;;17.90;15.55;;;13.60;99.90;;;;;;5066391;28;20195;-73
2022/03/30 08:29:45;;;;;;;18.58;15.75;;;13.60;99.90;;;;;;5065767;28;20213;-74
2022/03/30 08:32:12;;;;;;;20.23;15.93;;;13.60;99.90;;;;;;5069085;28;20237;-73
2022/03/30 08:34:39;;;;;;;18.30;12.40;;;13.40;99.90;;;;;;5073116;28;20179;-73
2022/03/30 08:37:05;;;;;;;20.70;15.30;;;13.50;99.90;;;;;;5063002;28;20230;-73
2022/03/30 08:39:31;;;;;;;22.85;13.95;;;13.50;99.90;;;;;;5072760;28;20179;-73
2022/03/30 08:41:57;;;;;;;19.25;14.27;;;13.40;99.90;;;;;;5079162;28;20182;-73
2022/03/30 08:44:22;;;;;;;24.02;15.73;;;13.20;99.90;;;;;;5064096;28;20183;-74
2022/03/30 08:46:48;;;;;;;19.70;14.55;;;12.90;99.90;;;;;;5071129;28;20693;-76
2022/03/30 08:49:15;;;;;;;20.35;13.98;;;12.70;99.90;;;;;;5061987;28;20176;-73
2022/03/30 08:51:45;;;;;;;21.77;15.38;;;12.60;99.90;;;;;;5069016;28;20545;-73
2022/03/30 08:54:12;;;;;;;26.55;15.75;;;12.30;99.90;;;;;;5071588;28;20659;-73
2022/03/30 08:56:39;;;;;;;27.08;17.95;;;12.00;99.90;;;;;;5069705;28;20348;-73
2022/03/30 08:59:09;;;;;;;24.15;17.70;;;11.80;99.90;;;;;;5064142;28;20666;-73
2022/03/30 09:01:39;;;;;;;20.75;16.35;;;11.70;99.90;;;;;;5068472;28;20179;-73
2022/03/30 09:04:08;;;;;;;25.38;17.00;;;11.60;99.90;;;;;;5070867;28;20187;-72
2022/03/30 09:06:42;;;;;;;24.55;16.48;;;11.50;99.90;;;;;;5063260;28;20192;-73
2022/03/30 09:09:09;;;;;;;23.80;15.85;;;11.30;99.90;;;;;;5064425;28;20180;-73
2022/03/30 09:11:53;;;;;;;20.65;16.23;;;11.20;99.90;;;;;;5080589;28;20257;-73
2022/03/30 09:14:20;;;;;;;26.45;16.45;;;11.10;99.90;;;;;;5065078;28;20571;-73
2022/03/30 09:16:49;;;;;;;29.35;18.10;;;11.10;99.90;;;;;;5068376;28;20221;-73
2022/03/30 09:19:17;;;;;;;22.75;16.77;;;11.00;99.90;;;;;;5061359;28;20209;-73
2022/03/30 09:21:50;;;;;;;25.40;16.75;;;11.00;99.90;;;;;;5065808;28;20186;-73
2022/03/30 09:24:19;;;;;;;23.52;16.38;;;10.90;99.90;;;;;;5062865;28;20218;-73
2022/03/30 09:26:46;;;;;;;26.13;13.07;;;10.90;99.90;;;;;;5058852;28;20234;-73
2022/03/30 09:29:13;;;;;;;29.85;17.00;;;10.80;99.90;;;;;;5062784;28;20270;-73
2022/03/30 09:31:41;;;;;;;27.23;17.27;;;10.80;99.90;;;;;;5065578;28;20566;-73
2022/03/30 09:34:09;;;;;;;26.58;18.10;;;10.60;99.90;;;;;;5063790;28;20233;-73
2022/03/30 09:36:37;;;;;;;25.83;18.00;;;10.50;99.90;;;;;;5063476;28;20205;-73
2022/03/30 09:39:04;;;;;;;27.73;18.08;;;10.40;99.90;;;;;;5064633;28;20189;-73
2022/03/30 09:41:51;;;;;;;30.55;17.58;;;10.40;99.90;;;;;;5068126;28;20172;-72
2022/03/30 09:44:17;;;;;;;29.30;17.88;;;10.30;99.90;;;;;;5052972;28;20183;-72
2022/03/30 09:46:58;;;;;;;25.75;15.07;;;10.40;99.90;;;;;;5065743;28;20261;-74
2022/03/30 09:49:39;;;;;;;27.98;13.95;;;10.50;99.90;;;;;;5061478;28;20746;-73
2022/03/30 09:52:14;;;;;;;22.02;16.15;;;10.60;99.90;;;;;;5064537;28;20530;-72
2022/03/30 09:54:43;;;;;;;24.10;14.15;;;10.60;99.90;;;;;;5066292;28;20178;-72
2022/03/30 09:57:14;;;;;;;22.90;17.38;;;10.70;99.90;;;;;;5064126;28;20305;-73
2022/03/30 10:00:02;;;;;;;26.98;16.05;;;10.70;99.90;;;;;;5071343;28;20178;-73
2022/03/30 10:02:34;;;;;;;27.33;19.63;;;10.80;99.90;;;;;;5063395;28;20694;-72
2022/03/30 10:05:01;;;;;;;25.08;19.00;;;10.80;99.90;;;;;;5064614;28;20289;-72
2022/03/30 10:07:28;;;;;;;27.10;18.75;;;10.80;99.90;;;;;;5059112;28;20286;-72
2022/03/30 10:09:56;;;;;;;28.98;18.55;;;10.90;99.90;;;;;;5065108;28;20186;-72
2022/03/30 10:12:23;;;;;;;24.60;15.75;;;11.10;99.90;;;;;;5066476;28;20180;-73
2022/03/30 10:14:49;;;;;;;26.00;15.43;;;11.10;99.90;;;;;;5064275;28;20186;-73
2022/03/30 10:17:15;;;;;;;26.67;14.23;;;11.30;99.90;;;;;;5066531;28;20613;-73
2022/03/30 10:19:44;;;;;;;22.60;13.15;;;11.50;99.90;;;;;;5062799;28;20194;-73
2022/03/30 10:22:09;;;;;;;22.33;16.42;;;11.70;99.90;;;;;;5068029;28;20179;-72
2022/03/30 10:25:05;;;;;;;22.05;14.00;;;11.90;99.90;;;;;;5066288;28;20183;-73
2022/03/30 10:27:52;;;;;;;24.33;14.57;;;12.10;99.90;;;;;;5062637;28;20236;-73
2022/03/30 10:30:27;;;;;;;22.58;14.00;;;12.40;99.90;;;;;;5066870;28;20180;-75
2022/03/30 10:32:59;;;;;;;19.92;14.02;;;12.70;99.90;;;;;;5067048;28;20174;-73
2022/03/30 10:35:46;;;;;;;20.48;13.60;;;12.70;99.90;;;;;;5076726;28;20204;-72
2022/03/30 10:38:12;;;;;;;22.48;14.48;;;12.80;99.90;;;;;;5069901;28;20171;-73
2022/03/30 10:40:39;;;;;;;20.05;13.68;;;12.90;99.90;;;;;;5070916;28;20208;-72
2022/03/30 10:43:09;;;;;;;20.55;14.18;;;12.80;99.90;;;;;;5067197;28;20220;-71
2022/03/30 10:45:49;;;;;;;19.27;12.25;;;12.90;99.90;;;;;;5067039;28;20191;-71
2022/03/30 10:48:20;;;;;;;18.75;13.13;;;12.90;99.90;;;;;;5064524;28;20183;-72
2022/03/30 10:50:54;;;;;;;20.98;13.55;;;12.90;99.90;;;;;;5069028;28;20179;-72
2022/03/30 10:53:31;;;;;;;18.48;11.60;;;13.00;99.90;;;;;;5062118;28;20180;-73
2022/03/30 10:56:09;;;;;;;14.90;9.07;;;12.80;99.90;;;;;;5069903;28;20222;-73
2022/03/30 10:59:00;;;;;;;18.70;12.23;;;12.80;99.90;;;;;;5072296;28;20218;-72
2022/03/30 11:01:28;;;;;;;21.67;10.95;;;12.70;99.90;;;;;;5067165;28;20246;-72
2022/03/30 11:04:16;;;;;;;17.00;12.15;;;12.60;99.90;;;;;;5072713;28;20183;-73
2022/03/30 11:06:47;;;;;;;22.33;11.57;;;12.50;99.90;;;;;;5069634;28;20199;-73
2022/03/30 11:09:28;;;;;;;17.88;10.38;;;12.40;99.90;;;;;;5063925;28;20665;-73
2022/03/30 11:12:13;;;;;;;21.00;11.73;;;12.20;99.90;;;;;;5062687;28;20180;-72
2022/03/30 11:14:43;;;;;;;23.60;10.68;;;11.90;99.90;;;;;;5070514;28;20187;-73
2022/03/30 11:17:30;;;;;;;20.35;10.07;;;11.70;99.90;;;;;;5072512;28;20203;-73
2022/03/30 11:19:58;;;;;;;20.90;11.63;;;11.60;99.90;;;;;;5067524;28;20268;-73
2022/03/30 11:22:36;;;;;;;18.30;13.18;;;11.60;99.90;;;;;;5067214;28;20250;-74
2022/03/30 11:25:05;;;;;;;22.17;13.00;;;11.50;99.90;;;;;;5069401;28;20215;-73
2022/03/30 11:27:31;;;;;;;21.45;12.55;;;11.60;99.90;;;;;;5068027;28;20727;-74
2022/03/30 11:29:58;;;;;;;21.73;13.20;;;11.50;99.90;;;;;;5071010;28;20203;-74
2022/03/30 11:32:24;;;;;;;24.75;13.68;;;11.40;99.90;;;;;;5067409;28;20172;-73
2022/03/30 11:34:58;;;;;;;21.70;13.25;;;11.40;99.90;;;;;;5072193;28;20225;-74
2022/03/30 11:37:35;;;;;;;23.48;13.18;;;11.30;99.90;;;;;;5069996;28;20247;-74
2022/03/30 11:40:08;;;;;;;19.88;13.18;;;11.30;99.90;;;;;;5070277;28;20179;-73
2022/03/30 11:42:37;;;;;;;19.23;11.32;;;11.20;99.90;;;;;;5072531;28;20175;-74
2022/03/30 11:45:13;;;;;;;20.83;10.48;;;11.00;99.90;;;;;;5064430;28;20191;-74
2022/03/30 11:47:41;;;;;;;22.38;11.90;;;11.00;99.90;;;;;;5069732;28;20187;-74
2022/03/30 11:50:06;;;;;;;20.20;12.10;;;10.90;99.90;;;;;;5069957;28;20211;-74
2022/03/30 11:52:32;;;;;;;23.17;11.25;;;10.90;99.90;;;;;;5070214;28;20218;-73
2022/03/30 11:54:58;;;;;;;19.48;11.25;;;10.90;99.90;;;;;;5069997;28;20199;-72
2022/03/30 11:57:24;;;;;;;19.80;12.25;;;11.00;99.90;;;;;;5068958;28;20234;-71
2022/03/30 12:00:01;;;;;;;24.70;12.75;;;11.20;99.90;;;;;;5068066;28;20327;-73
2022/03/30 12:02:27;;;;;;;21.38;11.80;;;11.20;99.90;;;;;;5065835;28;20187;-70
2022/03/30 12:04:54;;;;;;;19.95;11.38;;;11.30;99.90;;;;;;5067797;28;20643;-71
2022/03/30 12:07:20;;;;;;;17.67;11.45;;;11.30;99.90;;;;;;5066964;28;20258;-71
2022/03/30 12:09:47;;;;;;;22.40;11.27;;;11.40;99.90;;;;;;5059619;28;20203;-71
2022/03/30 12:12:25;;;;;;;21.30;11.43;;;11.30;99.90;;;;;;5066467;28;20203;-72
2022/03/30 12:15:00;;;;;;;19.52;12.05;;;11.40;99.90;;;;;;5070359;28;20665;-71
2022/03/30 12:17:28;;;;;;;21.25;12.57;;;11.50;99.90;;;;;;5065135;28;20207;-72
2022/03/30 12:19:54;;;;;;;22.45;12.80;;;11.50;99.90;;;;;;5064263;28;20202;-71
2022/03/30 12:22:20;;;;;;;18.30;12.52;;;11.40;99.90;;;;;;5064380;28;20252;-71
2022/03/30 12:24:46;;;;;;;17.73;12.02;;;11.40;99.90;;;;;;5062716;28;20254;-71
2022/03/30 12:27:12;;;;;;;23.95;12.75;;;11.30;99.90;;;;;;5061714;28;20278;-71
2022/03/30 12:29:39;;;;;;;26.75;14.30;;;11.30;99.90;;;;;;5062280;28;20668;-74
2022/03/30 12:32:05;;;;;;;20.00;14.02;;;11.30;99.90;;;;;;5058896;28;20191;-74
2022/03/30 12:34:35;;;;;;;19.98;14.15;;;11.30;99.90;;;;;;5059262;28;20188;-71
2022/03/30 12:37:06;;;;;;;28.35;14.15;;;11.50;99.90;;;;;;5059982;28;20677;-71
2022/03/30 12:39:41;;;;;;;21.00;15.40;;;11.40;99.90;;;;;;5059894;28;20236;-72